Time;durP1;ratioP1;P1;durP2;ratioP2;P2;SDS_P1;SDS_P2;PMS_P1;PMS_P2;Temp;Humidity;BMP_temperature;BMP_pressure;BME280_temperature;BME280_humidity;BME280_pressure;Samples;Min_cycle;Max_cycle;Signal;HPM_P1;HPM_P2
2021/03/17 00:00:20;;;;;;;6.67;4.23;;;4.20;99.90;;;;;;5053617;28;20040;-77
2021/03/17 00:03:06;;;;;;;5.63;3.83;;;4.10;99.90;;;;;;5052058;28;20052;-76
2021/03/17 00:05:52;;;;;;;6.53;3.83;;;4.10;99.90;;;;;;5057581;28;20063;-77
2021/03/17 00:08:37;;;;;;;7.03;4.43;;;4.10;99.90;;;;;;5055438;28;20392;-77
2021/03/17 00:11:22;;;;;;;6.70;3.80;;;4.10;99.90;;;;;;5053334;28;20037;-76
2021/03/17 00:14:07;;;;;;;6.13;4.50;;;4.00;99.90;;;;;;5057965;28;20356;-80
2021/03/17 00:16:52;;;;;;;5.83;3.97;;;4.10;99.90;;;;;;5038044;28;20028;-80
2021/03/17 00:19:37;;;;;;;8.37;4.93;;;4.10;99.90;;;;;;5055591;28;20618;-75
2021/03/17 00:22:22;;;;;;;8.40;5.20;;;4.10;99.90;;;;;;5078235;28;20044;-81
2021/03/17 00:25:08;;;;;;;6.93;4.20;;;4.10;99.90;;;;;;5043073;28;20032;-77
2021/03/17 00:27:53;;;;;;;5.73;3.83;;;4.10;99.90;;;;;;5074068;28;20040;-80
2021/03/17 00:30:42;;;;;;;10.43;5.90;;;4.10;99.90;;;;;;5044427;28;20442;-86
2021/03/17 00:33:27;;;;;;;8.30;5.03;;;4.10;99.90;;;;;;5076635;28;20390;-77
2021/03/17 00:36:12;;;;;;;8.67;4.43;;;4.10;99.90;;;;;;5049653;28;20063;-77
2021/03/17 00:38:57;;;;;;;5.07;3.43;;;4.10;99.90;;;;;;5064068;28;20067;-79
2021/03/17 00:41:42;;;;;;;5.87;3.33;;;4.20;99.90;;;;;;5047266;28;20414;-78
2021/03/17 00:44:28;;;;;;;7.97;3.77;;;4.20;99.90;;;;;;5051474;28;20043;-78
2021/03/17 00:47:13;;;;;;;6.67;3.67;;;4.20;99.90;;;;;;5066463;28;20130;-77
2021/03/17 00:49:39;;;;;;;6.90;4.17;;;4.30;99.90;;;;;;5027107;28;20048;-76
2021/03/17 00:52:06;;;;;;;8.13;3.83;;;4.30;99.90;;;;;;5057253;28;20021;-77
2021/03/17 00:54:51;;;;;;;7.33;4.27;;;4.30;99.90;;;;;;5049373;28;20036;-79
2021/03/17 00:57:42;;;;;;;7.87;4.47;;;4.30;99.90;;;;;;5062326;28;20040;-77
2021/03/17 01:00:11;;;;;;;9.50;5.73;;;4.30;99.90;;;;;;5059532;28;20237;-76
2021/03/17 01:02:39;;;;;;;6.23;3.77;;;4.30;99.90;;;;;;5055100;28;20036;-78
2021/03/17 01:05:07;;;;;;;6.87;4.57;;;4.30;99.90;;;;;;5020899;28;20052;-80
2021/03/17 01:07:34;;;;;;;7.70;5.23;;;4.30;99.90;;;;;;5074904;28;20063;-76
2021/03/17 01:10:14;;;;;;;7.57;4.47;;;4.40;99.90;;;;;;5037566;28;20050;-77
2021/03/17 01:12:41;;;;;;;10.17;5.67;;;4.40;99.90;;;;;;5054590;28;20037;-76
2021/03/17 01:15:11;;;;;;;8.67;5.20;;;4.40;99.90;;;;;;5048165;28;20061;-76
2021/03/17 01:17:38;;;;;;;7.47;4.80;;;4.40;99.90;;;;;;5056403;28;20028;-76
2021/03/17 01:20:05;;;;;;;9.67;5.47;;;4.40;99.90;;;;;;5062189;28;20038;-79
2021/03/17 01:22:31;;;;;;;8.20;5.63;;;4.40;99.90;;;;;;5015055;28;20032;-76
2021/03/17 01:24:58;;;;;;;8.63;5.40;;;4.40;99.90;;;;;;5056554;28;20043;-75
2021/03/17 01:27:24;;;;;;;7.90;5.33;;;4.40;99.90;;;;;;5062273;28;20411;-77
2021/03/17 01:29:51;;;;;;;8.93;5.40;;;4.40;99.90;;;;;;5056379;28;20052;-76
2021/03/17 01:32:17;;;;;;;8.33;5.80;;;4.40;99.90;;;;;;5042635;28;20039;-76
2021/03/17 01:34:44;;;;;;;8.27;5.20;;;4.40;99.90;;;;;;5026310;28;20490;-77
2021/03/17 01:37:12;;;;;;;8.27;5.67;;;4.40;99.90;;;;;;5073164;28;20368;-77
2021/03/17 01:39:39;;;;;;;7.57;5.60;;;4.50;99.90;;;;;;5071826;28;20052;-77
2021/03/17 01:42:06;;;;;;;6.97;4.93;;;4.50;99.90;;;;;;5021422;28;20036;-77
2021/03/17 01:44:32;;;;;;;7.07;4.87;;;4.50;99.90;;;;;;5044308;28;20047;-76
2021/03/17 01:46:59;;;;;;;7.00;5.37;;;4.50;99.90;;;;;;5056681;28;20044;-76
2021/03/17 01:49:25;;;;;;;8.67;5.93;;;4.60;99.90;;;;;;5071864;28;20032;-76
2021/03/17 01:51:52;;;;;;;7.30;5.37;;;4.60;99.90;;;;;;5076662;28;21508;-76
2021/03/17 01:54:18;;;;;;;6.93;5.10;;;4.60;99.90;;;;;;5044458;28;20024;-76
2021/03/17 01:56:45;;;;;;;7.93;5.03;;;4.60;99.90;;;;;;5040187;28;20032;-79
2021/03/17 01:59:11;;;;;;;8.23;5.40;;;4.60;99.90;;;;;;5040719;28;20415;-79
2021/03/17 02:01:38;;;;;;;6.00;4.70;;;4.60;99.90;;;;;;5049040;28;20032;-80
2021/03/17 02:04:05;;;;;;;6.87;5.63;;;4.60;99.90;;;;;;5053345;28;20048;-79
2021/03/17 02:06:31;;;;;;;7.27;5.07;;;4.60;99.90;;;;;;5060035;28;20056;-79
2021/03/17 02:08:58;;;;;;;7.10;4.97;;;4.60;99.90;;;;;;5079456;28;20044;-79
2021/03/17 02:11:25;;;;;;;5.80;4.40;;;4.70;99.90;;;;;;5080162;28;20036;-81
2021/03/17 02:14:16;;;;;;;8.80;5.43;;;4.70;99.90;;;;;;5077334;28;20059;-80
2021/03/17 02:17:01;;;;;;;8.10;5.70;;;4.70;99.90;;;;;;5060836;28;20037;-80
2021/03/17 02:19:36;;;;;;;10.27;6.53;;;4.80;99.90;;;;;;5044457;28;20040;-79
2021/03/17 02:22:34;;;;;;;8.30;5.73;;;4.80;99.90;;;;;;5077415;28;20048;-79
2021/03/17 02:25:20;;;;;;;6.93;5.47;;;4.70;99.90;;;;;;5072984;28;20494;-80
2021/03/17 02:27:46;;;;;;;9.17;5.83;;;4.80;99.90;;;;;;5078547;28;20048;-81
2021/03/17 02:30:40;;;;;;;7.93;5.87;;;4.80;99.90;;;;;;5071691;28;20051;-80
2021/03/17 02:33:45;;;;;;;7.63;5.33;;;4.80;99.90;;;;;;5078786;28;20051;-81
2021/03/17 02:36:16;;;;;;;8.30;6.57;;;4.80;99.90;;;;;;5052685;28;20040;-79
2021/03/17 02:38:47;;;;;;;8.43;6.43;;;4.90;99.90;;;;;;5069103;28;20040;-81
2021/03/17 02:41:21;;;;;;;7.30;5.85;;;4.90;99.90;;;;;;5079467;28;20483;-80
2021/03/17 02:43:53;;;;;;;8.60;6.03;;;4.90;99.90;;;;;;5064167;28;20036;-80
2021/03/17 02:46:23;;;;;;;10.35;6.32;;;5.00;99.90;;;;;;5075317;28;20513;-79
2021/03/17 02:49:02;;;;;;;8.93;6.53;;;5.00;99.90;;;;;;5066571;28;20032;-80
2021/03/17 02:51:46;;;;;;;8.93;5.73;;;5.00;99.90;;;;;;5075632;28;20040;-80
2021/03/17 02:54:15;;;;;;;12.73;7.23;;;5.00;99.90;;;;;;5056019;28;20115;-80
2021/03/17 02:56:47;;;;;;;11.00;7.50;;;5.10;99.90;;;;;;5051461;28;20047;-80
2021/03/17 02:59:16;;;;;;;10.38;7.72;;;5.10;99.90;;;;;;5080236;28;20047;-80
2021/03/17 03:01:44;;;;;;;9.77;7.43;;;5.10;99.90;;;;;;5072010;28;20048;-79
2021/03/17 03:04:12;;;;;;;11.60;8.30;;;5.10;99.90;;;;;;5073696;28;20475;-80
2021/03/17 03:06:43;;;;;;;8.60;6.70;;;5.00;99.90;;;;;;5074049;28;20052;-80
2021/03/17 03:09:11;;;;;;;9.70;6.70;;;5.10;99.90;;;;;;5078057;28;20055;-80
2021/03/17 03:11:38;;;;;;;8.10;6.20;;;5.10;99.90;;;;;;5070223;28;20036;-80
2021/03/17 03:14:06;;;;;;;6.70;5.07;;;5.10;99.90;;;;;;5070740;28;20357;-78
2021/03/17 03:16:35;;;;;;;7.87;5.57;;;5.10;99.90;;;;;;5072038;28;20066;-79
2021/03/17 03:19:05;;;;;;;9.55;6.68;;;5.20;99.90;;;;;;5077732;28;20364;-78
2021/03/17 03:21:32;;;;;;;7.03;5.20;;;5.20;99.90;;;;;;5052337;28;20047;-80
2021/03/17 03:23:59;;;;;;;7.23;5.53;;;5.20;99.90;;;;;;5042380;28;20039;-78
2021/03/17 03:26:27;;;;;;;6.97;5.50;;;5.20;99.90;;;;;;5047216;28;20044;-77
2021/03/17 03:28:56;;;;;;;8.13;6.00;;;5.20;99.90;;;;;;5072803;28;20044;-77
2021/03/17 03:31:23;;;;;;;9.37;7.57;;;5.20;99.90;;;;;;5074057;28;20024;-75
2021/03/17 03:33:50;;;;;;;16.17;12.07;;;5.30;99.90;;;;;;5050383;28;20029;-77
2021/03/17 03:36:17;;;;;;;9.60;7.17;;;5.20;99.90;;;;;;5070915;28;20051;-77
2021/03/17 03:38:43;;;;;;;9.45;7.38;;;5.20;99.90;;;;;;5050078;28;20512;-77
2021/03/17 03:41:10;;;;;;;9.63;6.77;;;5.30;99.90;;;;;;5049293;28;20064;-77
2021/03/17 03:43:37;;;;;;;8.43;6.23;;;5.20;99.90;;;;;;5070826;28;20543;-77
2021/03/17 03:46:04;;;;;;;9.70;6.30;;;5.20;99.90;;;;;;5072916;28;20043;-77
2021/03/17 03:48:31;;;;;;;7.27;6.20;;;5.20;99.90;;;;;;5056893;28;20060;-77
2021/03/17 03:50:57;;;;;;;6.97;5.53;;;5.30;99.90;;;;;;5061979;28;20032;-77
2021/03/17 03:53:41;;;;;;;8.20;6.53;;;5.30;99.90;;;;;;5076015;28;20510;-81
2021/03/17 03:56:32;;;;;;;6.97;5.50;;;5.30;99.90;;;;;;5063403;28;20040;-81
2021/03/17 03:59:05;;;;;;;8.37;6.37;;;5.30;99.90;;;;;;5079177;28;20399;-81
2021/03/17 04:01:45;;;;;;;;;;;5.30;99.90;;;;;;5085259;28;20043;-80
2021/03/17 04:04:15;;;;;;;6.13;4.33;;;5.40;99.90;;;;;;5060995;28;19915;-81
2021/03/17 04:06:50;;;;;;;7.60;4.78;;;5.30;99.90;;;;;;5080404;28;20051;-81
2021/03/17 04:09:28;;;;;;;6.50;4.93;;;5.30;99.90;;;;;;5080526;28;20390;-80
2021/03/17 04:12:02;;;;;;;6.57;5.60;;;5.40;99.90;;;;;;5078028;28;20508;-80
2021/03/17 04:14:30;;;;;;;7.95;5.70;;;5.40;99.90;;;;;;5082305;28;20486;-81
2021/03/17 04:17:04;;;;;;;7.17;4.60;;;5.40;99.90;;;;;;5075503;28;20399;-80
2021/03/17 04:19:33;;;;;;;5.80;4.45;;;5.40;99.90;;;;;;5078138;28;20028;-80
2021/03/17 04:22:02;;;;;;;6.73;5.17;;;5.40;99.90;;;;;;5081071;28;20040;-81
2021/03/17 04:24:31;;;;;;;6.82;5.07;;;5.40;99.90;;;;;;5059141;28;20118;-81
2021/03/17 04:27:01;;;;;;;5.53;4.30;;;5.40;99.90;;;;;;5072645;28;20508;-81
2021/03/17 04:29:32;;;;;;;6.43;4.27;;;5.40;99.90;;;;;;5077627;28;20852;-81
2021/03/17 04:32:01;;;;;;;7.13;4.47;;;5.40;99.90;;;;;;5066052;28;20028;-81
2021/03/17 04:34:29;;;;;;;5.93;4.75;;;5.40;99.90;;;;;;5080326;28;20046;-81
2021/03/17 04:36:57;;;;;;;6.63;4.33;;;5.40;99.90;;;;;;5060546;28;20024;-81
2021/03/17 04:39:25;;;;;;;5.90;3.95;;;5.40;99.90;;;;;;5080350;28;20044;-83
2021/03/17 04:41:55;;;;;;;7.25;4.75;;;5.40;99.90;;;;;;5042656;28;20059;-83
2021/03/17 04:44:22;;;;;;;8.80;6.50;;;5.40;99.90;;;;;;5065979;28;20028;-81
2021/03/17 04:46:50;;;;;;;9.65;6.03;;;5.50;99.90;;;;;;5076156;28;20504;-78
2021/03/17 04:49:19;;;;;;;7.15;4.78;;;5.50;99.90;;;;;;5074904;28;20407;-81
2021/03/17 04:51:47;;;;;;;6.32;4.88;;;5.50;99.90;;;;;;5074621;28;20036;-81
2021/03/17 04:54:13;;;;;;;6.23;4.17;;;5.50;99.90;;;;;;5064615;28;20501;-82
2021/03/17 04:56:43;;;;;;;6.00;3.97;;;5.50;99.90;;;;;;5063858;28;20056;-82
2021/03/17 04:59:15;;;;;;;5.15;3.22;;;5.50;99.90;;;;;;5076105;28;20032;-81
2021/03/17 05:01:43;;;;;;;5.40;3.38;;;5.40;99.90;;;;;;5059891;28;20033;-80
2021/03/17 05:04:12;;;;;;;8.60;5.70;;;5.40;99.90;;;;;;5073684;28;20053;-79
2021/03/17 05:06:41;;;;;;;7.57;5.03;;;5.50;99.90;;;;;;5072537;28;20049;-82
2021/03/17 05:09:10;;;;;;;7.32;4.22;;;5.40;99.90;;;;;;5079536;28;20028;-77
2021/03/17 05:11:38;;;;;;;9.10;5.32;;;5.40;99.90;;;;;;5059299;28;20495;-83
2021/03/17 05:14:06;;;;;;;8.00;4.23;;;5.40;99.90;;;;;;5067337;28;20028;-81
2021/03/17 05:16:35;;;;;;;9.77;5.93;;;5.40;99.90;;;;;;5046612;28;20059;-79
2021/03/17 05:19:04;;;;;;;6.80;4.40;;;5.40;99.90;;;;;;5063260;28;20052;-82
2021/03/17 05:21:34;;;;;;;7.10;4.90;;;5.40;99.90;;;;;;5058322;28;20036;-79
2021/03/17 05:24:01;;;;;;;13.63;6.28;;;5.40;99.90;;;;;;5071186;28;20036;-77
2021/03/17 05:26:29;;;;;;;9.73;4.67;;;5.50;99.90;;;;;;5073226;28;20060;-79
2021/03/17 05:28:59;;;;;;;7.50;4.27;;;5.50;99.90;;;;;;5075654;28;20032;-79
2021/03/17 05:31:27;;;;;;;6.60;3.58;;;5.40;99.90;;;;;;5071301;28;20475;-76
2021/03/17 05:33:54;;;;;;;7.28;3.45;;;5.40;99.90;;;;;;5075419;28;20028;-76
2021/03/17 05:36:20;;;;;;;5.47;2.53;;;5.40;99.90;;;;;;5074899;28;20051;-76
2021/03/17 05:38:47;;;;;;;5.97;2.87;;;5.40;99.90;;;;;;5060395;28;20040;-81
2021/03/17 05:41:14;;;;;;;4.73;2.23;;;5.40;99.90;;;;;;5056008;28;20060;-77
2021/03/17 05:43:41;;;;;;;4.97;2.28;;;5.30;99.90;;;;;;5070399;28;20479;-77
2021/03/17 05:46:08;;;;;;;6.33;2.27;;;5.30;99.90;;;;;;5074390;28;20067;-77
2021/03/17 05:48:35;;;;;;;5.93;3.05;;;5.30;99.90;;;;;;5068189;28;20061;-79
2021/03/17 05:51:02;;;;;;;5.13;2.67;;;5.30;99.90;;;;;;5075394;28;20040;-80
2021/03/17 05:53:29;;;;;;;5.28;2.80;;;5.30;99.90;;;;;;5073307;28;20454;-80
2021/03/17 05:56:00;;;;;;;5.00;2.43;;;5.30;99.90;;;;;;5069974;28;21365;-79
2021/03/17 05:58:28;;;;;;;5.63;2.67;;;5.30;99.90;;;;;;5076977;28;20028;-79
2021/03/17 06:00:55;;;;;;;5.47;2.85;;;5.30;99.90;;;;;;5047468;28;20047;-79
2021/03/17 06:03:23;;;;;;;4.72;2.55;;;5.40;99.90;;;;;;5075700;28;20049;-79
2021/03/17 06:05:50;;;;;;;6.40;2.58;;;5.30;99.90;;;;;;5074371;28;20048;-80
2021/03/17 06:08:24;;;;;;;5.55;3.17;;;5.30;99.90;;;;;;5037811;28;20055;-79
2021/03/17 06:10:52;;;;;;;12.13;2.92;;;5.30;99.90;;;;;;5059223;28;20041;-80
2021/03/17 06:13:21;;;;;;;4.50;2.40;;;5.30;99.90;;;;;;5057420;28;20398;-80
2021/03/17 06:16:00;;;;;;;8.50;3.00;;;5.30;99.90;;;;;;5060369;28;20024;-80
2021/03/17 06:18:35;;;;;;;5.33;2.83;;;5.40;99.90;;;;;;5040980;28;20052;-79
2021/03/17 06:21:04;;;;;;;4.97;2.63;;;5.40;99.90;;;;;;5039958;28;20356;-79
2021/03/17 06:23:31;;;;;;;7.47;3.15;;;5.30;99.90;;;;;;5046239;28;20055;-80
2021/03/17 06:25:58;;;;;;;7.82;3.28;;;5.30;99.90;;;;;;5078327;28;20051;-80
2021/03/17 06:28:27;;;;;;;5.65;3.42;;;5.40;99.90;;;;;;5040233;28;20049;-80
2021/03/17 06:30:54;;;;;;;6.72;3.38;;;5.40;99.90;;;;;;5079861;28;20407;-80
2021/03/17 06:33:21;;;;;;;5.47;3.55;;;5.40;99.90;;;;;;5061062;28;20064;-80
2021/03/17 06:35:48;;;;;;;7.45;3.97;;;5.40;99.90;;;;;;5051550;28;20415;-80
2021/03/17 06:38:24;;;;;;;6.87;4.03;;;5.40;99.90;;;;;;5057308;28;20414;-76
2021/03/17 06:41:00;;;;;;;8.70;3.83;;;5.40;99.90;;;;;;5023731;28;20048;-76
2021/03/17 06:43:38;;;;;;;8.77;3.83;;;5.40;99.90;;;;;;5061300;28;20036;-79
2021/03/17 06:46:06;;;;;;;7.00;3.63;;;5.40;99.90;;;;;;5075667;28;20043;-79
2021/03/17 06:48:33;;;;;;;5.63;2.87;;;5.40;99.90;;;;;;5059206;28;20040;-79
2021/03/17 06:51:29;;;;;;;6.38;2.45;;;5.40;99.90;;;;;;5074021;28;20040;-79
2021/03/17 06:54:01;;;;;;;6.07;1.67;;;5.30;99.90;;;;;;5025401;28;20044;-79
2021/03/17 06:56:33;;;;;;;4.47;1.30;;;5.20;99.90;;;;;;5059426;28;20052;-80
2021/03/17 06:59:01;;;;;;;3.05;1.48;;;5.20;99.90;;;;;;5070591;28;20028;-79
2021/03/17 07:01:42;;;;;;;2.60;1.20;;;5.10;99.90;;;;;;5073648;28;20036;-79
2021/03/17 07:04:13;;;;;;;2.97;1.53;;;5.20;99.90;;;;;;5057737;28;20481;-79
2021/03/17 07:06:42;;;;;;;4.77;1.77;;;5.20;99.90;;;;;;5058327;28;20057;-79
2021/03/17 07:09:25;;;;;;;2.77;1.53;;;5.30;99.90;;;;;;5077608;28;20051;-79
2021/03/17 07:12:04;;;;;;;4.70;1.70;;;5.40;99.90;;;;;;5069518;28;20463;-80
2021/03/17 07:14:40;;;;;;;4.37;1.57;;;5.40;99.90;;;;;;5071979;28;20047;-80
2021/03/17 07:17:27;;;;;;;3.63;1.47;;;5.50;99.90;;;;;;5067819;28;20040;-80
2021/03/17 07:19:54;;;;;;;4.40;1.80;;;5.50;99.90;;;;;;5036504;28;20373;-80
2021/03/17 07:22:22;;;;;;;3.22;1.52;;;5.60;99.90;;;;;;5073137;28;20037;-81
2021/03/17 07:24:54;;;;;;;4.90;1.50;;;5.80;99.90;;;;;;5077100;28;20075;-80
2021/03/17 07:27:24;;;;;;;2.72;1.67;;;5.90;99.90;;;;;;5077668;28;20040;-77
2021/03/17 07:30:01;;;;;;;3.65;1.40;;;6.00;99.90;;;;;;5073096;28;20039;-77
2021/03/17 07:33:13;;;;;;;4.38;1.13;;;6.10;99.90;;;;;;5072994;28;20036;-76
2021/03/17 07:35:40;;;;;;;2.70;1.13;;;6.10;99.90;;;;;;5071778;28;20032;-77
2021/03/17 07:38:14;;;;;;;3.30;1.08;;;6.20;99.90;;;;;;5074421;28;20033;-80
2021/03/17 07:40:46;;;;;;;4.43;1.05;;;6.30;99.90;;;;;;5058897;28;20178;-80
2021/03/17 07:43:15;;;;;;;3.97;1.02;;;6.30;99.90;;;;;;5053726;28;20040;-80
2021/03/17 07:45:42;;;;;;;2.80;1.00;;;6.40;99.90;;;;;;5062900;28;20028;-80
2021/03/17 07:48:12;;;;;;;3.80;0.77;;;6.40;99.90;;;;;;5071117;28;20031;-80
2021/03/17 07:50:40;;;;;;;3.25;0.68;;;6.40;99.90;;;;;;5075224;28;20043;-80
2021/03/17 07:53:09;;;;;;;8.73;0.60;;;6.40;99.90;;;;;;5079767;28;20388;-80
2021/03/17 07:55:39;;;;;;;1.88;0.57;;;6.40;99.90;;;;;;5079372;28;20024;-81
2021/03/17 07:58:07;;;;;;;3.72;0.50;;;6.40;99.90;;;;;;5084628;28;20036;-81
2021/03/17 08:00:35;;;;;;;3.63;0.70;;;6.40;99.90;;;;;;5075083;28;20395;-80
2021/03/17 08:03:04;;;;;;;2.42;0.40;;;6.50;99.90;;;;;;5055982;28;20028;-81
2021/03/17 08:05:33;;;;;;;3.50;0.60;;;6.60;99.90;;;;;;5075989;28;20036;-81
2021/03/17 08:08:00;;;;;;;3.70;0.50;;;6.70;99.90;;;;;;5073138;28;20418;-81
2021/03/17 08:10:27;;;;;;;6.05;0.52;;;6.70;99.90;;;;;;5078385;28;20043;-82
2021/03/17 08:12:54;;;;;;;5.18;0.50;;;6.70;99.90;;;;;;5076367;28;20044;-81
2021/03/17 08:15:21;;;;;;;8.40;0.80;;;6.70;99.40;;;;;;5079714;28;20040;-81
2021/03/17 08:17:48;;;;;;;3.75;0.70;;;6.60;98.90;;;;;;5042464;28;20029;-80
2021/03/17 08:20:14;;;;;;;7.32;0.50;;;6.50;98.30;;;;;;5064563;28;20036;-80
2021/03/17 08:22:41;;;;;;;3.70;0.45;;;6.40;98.60;;;;;;5079015;28;20055;-80
2021/03/17 08:25:12;;;;;;;2.58;0.50;;;6.30;98.50;;;;;;5075358;28;20048;-80
2021/03/17 08:27:39;;;;;;;3.07;0.43;;;6.20;98.80;;;;;;5076593;28;20577;-81
2021/03/17 08:30:13;;;;;;;4.40;0.30;;;6.20;99.00;;;;;;5062902;28;20032;-81
2021/03/17 08:32:56;;;;;;;3.83;0.40;;;6.10;99.40;;;;;;5080547;28;20051;-80
2021/03/17 08:35:22;;;;;;;3.42;0.38;;;6.10;99.20;;;;;;5080879;28;20063;-81
2021/03/17 08:37:54;;;;;;;2.95;0.47;;;6.00;99.00;;;;;;5072202;28;20036;-81
2021/03/17 08:40:27;;;;;;;5.45;0.43;;;6.10;99.50;;;;;;5055788;28;20036;-80
2021/03/17 08:42:54;;;;;;;6.38;0.50;;;6.30;99.60;;;;;;5082334;28;20033;-80
2021/03/17 08:45:21;;;;;;;8.60;0.43;;;6.40;99.40;;;;;;5071947;28;20052;-81
2021/03/17 08:47:49;;;;;;;3.83;0.38;;;6.70;98.80;;;;;;5055513;28;20029;-81
2021/03/17 08:50:16;;;;;;;5.10;0.73;;;6.90;98.40;;;;;;5078782;28;20030;-80
2021/03/17 08:52:48;;;;;;;6.25;0.40;;;7.10;97.60;;;;;;5072927;28;20045;-81
2021/03/17 08:55:37;;;;;;;3.60;0.50;;;7.30;97.50;;;;;;5069484;28;20059;-80
2021/03/17 08:58:08;;;;;;;5.25;0.50;;;7.30;96.70;;;;;;5063318;28;20487;-79
2021/03/17 09:00:48;;;;;;;2.47;0.40;;;7.10;96.00;;;;;;5074519;28;20056;-80
2021/03/17 09:03:44;;;;;;;3.47;0.50;;;6.90;96.30;;;;;;5039065;28;20040;-80
2021/03/17 09:06:28;;;;;;;5.97;0.40;;;6.80;96.60;;;;;;5061511;28;20064;-80
2021/03/17 09:09:06;;;;;;;2.35;0.30;;;6.80;96.40;;;;;;5062929;28;20051;-80
2021/03/17 09:11:33;;;;;;;3.97;0.35;;;6.90;96.90;;;;;;5067835;28;20036;-81
2021/03/17 09:14:01;;;;;;;7.25;0.43;;;7.10;96.70;;;;;;5075838;28;20426;-79
2021/03/17 09:16:31;;;;;;;4.43;0.50;;;7.20;96.50;;;;;;5074945;28;20033;-81
2021/03/17 09:19:13;;;;;;;4.15;0.43;;;7.10;95.20;;;;;;5073705;28;20422;-79
2021/03/17 09:21:45;;;;;;;6.10;0.52;;;7.00;95.10;;;;;;5057932;28;20036;-79
2021/03/17 09:24:32;;;;;;;6.22;0.60;;;6.70;95.30;;;;;;5078454;28;20033;-79
2021/03/17 09:27:06;;;;;;;4.32;0.52;;;6.50;95.70;;;;;;5045191;28;20514;-79
2021/03/17 09:29:34;;;;;;;4.97;0.98;;;6.40;95.70;;;;;;5053738;28;20162;-79
2021/03/17 09:32:02;;;;;;;3.70;0.47;;;6.30;96.30;;;;;;5072882;28;20048;-79
2021/03/17 09:34:29;;;;;;;3.85;0.50;;;6.30;97.00;;;;;;5069556;28;20024;-80
2021/03/17 09:37:07;;;;;;;2.45;0.55;;;6.50;97.20;;;;;;5066612;28;20045;-81
2021/03/17 09:39:47;;;;;;;3.97;0.40;;;6.50;97.40;;;;;;5074002;28;20478;-81
2021/03/17 09:42:18;;;;;;;3.78;0.50;;;6.60;97.40;;;;;;5073205;28;20040;-80
2021/03/17 09:44:45;;;;;;;2.72;0.35;;;6.70;96.90;;;;;;5077128;28;20494;-87
2021/03/17 09:47:11;;;;;;;2.72;0.35;;;6.70;97.20;;;;;;5032580;28;20040;-83
2021/03/17 09:49:38;;;;;;;3.95;0.60;;;6.80;97.50;;;;;;5075047;28;20051;-81
2021/03/17 09:52:06;;;;;;;4.18;0.40;;;6.90;97.50;;;;;;5073037;28;20036;-80
2021/03/17 09:54:34;;;;;;;4.88;0.50;;;7.10;97.10;;;;;;5059266;28;20040;-81
2021/03/17 09:57:05;;;;;;;6.25;0.50;;;7.20;96.80;;;;;;5076921;28;20028;-81
2021/03/17 09:59:40;;;;;;;6.28;0.50;;;7.30;95.90;;;;;;5061313;28;20418;-81
2021/03/17 10:02:25;;;;;;;4.55;0.50;;;7.60;95.50;;;;;;5072827;28;20036;-81
2021/03/17 10:04:59;;;;;;;7.05;0.57;;;7.70;94.10;;;;;;5086419;28;20432;-80
2021/03/17 10:07:29;;;;;;;5.30;0.50;;;7.80;92.90;;;;;;5079372;28;20059;-81
2021/03/17 10:09:57;;;;;;;3.35;0.30;;;7.90;92.80;;;;;;5059046;28;20415;-81
2021/03/17 10:12:27;;;;;;;6.25;0.40;;;8.00;92.00;;;;;;5047404;28;20028;-81
2021/03/17 10:15:05;;;;;;;5.82;0.55;;;8.00;92.20;;;;;;5045050;28;20036;-81
2021/03/17 10:17:32;;;;;;;4.25;0.30;;;8.00;92.20;;;;;;5040238;28;20047;-82
2021/03/17 10:20:11;;;;;;;5.32;0.63;;;8.10;91.50;;;;;;5035665;28;20042;-82
2021/03/17 10:22:40;;;;;;;7.97;0.40;;;8.20;91.10;;;;;;5050515;28;20054;-82
2021/03/17 10:25:20;;;;;;;5.53;0.50;;;8.20;90.60;;;;;;5045697;28;20044;-82
2021/03/17 10:28:09;;;;;;;3.20;0.40;;;8.10;89.80;;;;;;5055785;28;20406;-82
2021/03/17 10:30:41;;;;;;;6.50;0.50;;;8.30;91.00;;;;;;5002397;28;20130;-82
2021/03/17 10:33:10;;;;;;;5.05;0.40;;;8.60;91.30;;;;;;5058463;28;20036;-82
2021/03/17 10:35:38;;;;;;;5.45;0.70;;;8.80;90.30;;;;;;5053841;28;20056;-82
2021/03/17 10:38:06;;;;;;;4.22;0.50;;;8.80;90.20;;;;;;5055305;28;20492;-82
2021/03/17 10:40:32;;;;;;;7.13;0.50;;;8.80;89.50;;;;;;5054259;28;20024;-82
2021/03/17 10:43:13;;;;;;;8.02;0.65;;;8.70;89.10;;;;;;5052942;28;20063;-82
2021/03/17 10:45:53;;;;;;;5.22;0.40;;;8.60;89.80;;;;;;5042383;28;20051;-82
2021/03/17 10:48:24;;;;;;;4.97;0.60;;;8.50;90.30;;;;;;5056413;28;20024;-82
2021/03/17 10:50:52;;;;;;;3.90;0.40;;;8.60;90.40;;;;;;5053423;28;20054;-82
2021/03/17 10:53:26;;;;;;;6.78;0.38;;;8.60;90.50;;;;;;5042386;28;20061;-82
2021/03/17 10:55:55;;;;;;;3.03;0.30;;;8.80;87.90;;;;;;5035396;28;20032;-82
2021/03/17 10:58:25;;;;;;;7.13;0.55;;;8.80;88.90;;;;;;5055367;28;20021;-83
2021/03/17 11:00:55;;;;;;;5.18;0.40;;;8.90;89.80;;;;;;5044135;28;20043;-82
2021/03/17 11:03:38;;;;;;;5.10;0.40;;;9.10;90.40;;;;;;5052118;28;20048;-83
2021/03/17 11:06:20;;;;;;;3.92;0.30;;;9.40;90.20;;;;;;5041288;28;20036;-82
2021/03/17 11:09:05;;;;;;;5.55;0.52;;;9.40;87.90;;;;;;5057425;28;20045;-82
2021/03/17 11:11:34;;;;;;;3.65;0.30;;;9.30;85.70;;;;;;5051801;28;20048;-83
2021/03/17 11:14:01;;;;;;;5.40;0.45;;;9.20;82.70;;;;;;5058748;28;20617;-82
2021/03/17 11:16:27;;;;;;;9.57;0.63;;;8.90;82.70;;;;;;5041228;28;20045;-83
2021/03/17 11:18:59;;;;;;;3.05;0.30;;;8.80;85.00;;;;;;5054411;28;20028;-83
2021/03/17 11:21:39;;;;;;;5.32;0.55;;;8.70;86.80;;;;;;5053200;28;20487;-83
2021/03/17 11:24:16;;;;;;;3.88;0.40;;;8.70;87.20;;;;;;5052886;28;20383;-83
2021/03/17 11:26:43;;;;;;;4.60;0.50;;;8.60;86.90;;;;;;5023482;28;20046;-83
2021/03/17 11:29:26;;;;;;;3.33;0.40;;;8.60;88.40;;;;;;5037855;28;20063;-83
2021/03/17 11:31:55;;;;;;;6.03;0.50;;;8.60;89.10;;;;;;5072872;28;20103;-86
2021/03/17 11:34:22;;;;;;;6.07;0.57;;;8.90;89.30;;;;;;5040055;28;20039;-82
2021/03/17 11:36:49;;;;;;;5.40;0.50;;;9.10;89.70;;;;;;5072266;28;20032;-81
2021/03/17 11:39:17;;;;;;;5.88;0.60;;;9.60;89.50;;;;;;5042148;28;20033;-84
2021/03/17 11:41:48;;;;;;;8.30;0.63;;;9.90;89.90;;;;;;5056636;28;20047;-82
2021/03/17 11:44:20;;;;;;;7.75;0.40;;;10.00;88.00;;;;;;5039752;28;20029;-87
2021/03/17 11:46:47;;;;;;;4.50;0.80;;;9.90;87.40;;;;;;5059084;28;20047;-84
2021/03/17 11:49:15;;;;;;;26.25;15.05;;;9.80;85.40;;;;;;5046617;28;20137;-84
2021/03/17 11:51:42;;;;;;;7.78;1.95;;;9.50;84.10;;;;;;5059285;28;20051;-81
2021/03/17 11:54:09;;;;;;;8.75;1.10;;;9.10;84.10;;;;;;5054984;28;20039;-84
2021/03/17 11:56:35;;;;;;;7.63;0.60;;;8.80;85.20;;;;;;5045152;28;20036;-84
2021/03/17 11:59:02;;;;;;;6.07;0.70;;;8.40;87.50;;;;;;5028793;28;20036;-83
2021/03/17 12:01:29;;;;;;;4.22;0.45;;;8.20;89.50;;;;;;5032579;28;20036;-82
2021/03/17 12:03:55;;;;;;;5.22;0.40;;;8.00;90.40;;;;;;5024521;28;20033;-84
2021/03/17 12:06:22;;;;;;;4.25;0.47;;;7.90;90.80;;;;;;5041690;28;20048;-82
2021/03/17 12:08:49;;;;;;;4.90;0.75;;;7.80;91.50;;;;;;5073934;28;20055;-84
2021/03/17 12:11:17;;;;;;;6.03;0.95;;;7.70;91.70;;;;;;5053057;28;20047;-85
2021/03/17 12:13:44;;;;;;;3.15;0.30;;;7.70;92.30;;;;;;5068175;28;20041;-86
2021/03/17 12:16:10;;;;;;;19.35;9.07;;;7.70;92.70;;;;;;5047426;28;20028;-86
2021/03/17 12:18:37;;;;;;;8.90;2.67;;;7.70;92.90;;;;;;5023061;28;20577;-85
2021/03/17 12:21:04;;;;;;;4.28;0.90;;;7.80;93.10;;;;;;5045354;28;20039;-89
2021/03/17 12:23:31;;;;;;;5.38;0.68;;;7.80;92.90;;;;;;5031990;28;20502;-88
2021/03/17 12:25:57;;;;;;;2.90;0.80;;;7.70;92.70;;;;;;5040045;28;20029;-91
2021/03/17 12:28:24;;;;;;;5.38;0.32;;;7.80;93.20;;;;;;5063640;28;20060;-90
2021/03/17 12:30:50;;;;;;;3.03;0.30;;;7.80;93.50;;;;;;5033031;28;20035;-84
2021/03/17 12:33:17;;;;;;;2.33;0.30;;;8.00;93.70;;;;;;5070599;28;20043;-85
2021/03/17 12:35:44;;;;;;;2.53;0.30;;;8.10;93.80;;;;;;5071167;28;20043;-85
2021/03/17 12:38:10;;;;;;;2.20;0.60;;;8.20;93.80;;;;;;5053631;28;20047;-84
2021/03/17 12:40:37;;;;;;;5.75;1.25;;;8.30;93.80;;;;;;5062119;28;20047;-83
2021/03/17 12:43:04;;;;;;;3.47;0.60;;;8.30;93.80;;;;;;5078815;28;20032;-88
2021/03/17 12:45:32;;;;;;;4.72;0.70;;;8.30;93.90;;;;;;5076574;28;20036;-78
2021/03/17 12:47:58;;;;;;;3.28;0.90;;;8.30;93.40;;;;;;5047799;28;20032;-83
2021/03/17 12:50:27;;;;;;;1.92;0.43;;;8.10;93.20;;;;;;5054621;28;20044;-83
2021/03/17 12:52:53;;;;;;;7.13;0.82;;;8.00;93.00;;;;;;5058969;28;20036;-81
2021/03/17 12:55:20;;;;;;;2.15;0.40;;;7.90;93.10;;;;;;5052723;28;20040;-82
2021/03/17 12:57:47;;;;;;;2.97;0.40;;;7.70;93.20;;;;;;5061295;28;21472;-83
2021/03/17 13:00:17;;;;;;;2.30;0.30;;;7.70;93.70;;;;;;5053548;28;20035;-83
2021/03/17 13:02:44;;;;;;;3.22;0.40;;;7.80;94.10;;;;;;5077154;28;20542;-83
2021/03/17 13:05:12;;;;;;;3.53;0.40;;;7.90;94.00;;;;;;5082064;28;20047;-83
2021/03/17 13:07:39;;;;;;;1.80;0.40;;;8.00;94.10;;;;;;5067166;28;20518;-84
2021/03/17 13:10:15;;;;;;;3.20;0.32;;;8.10;93.90;;;;;;5049454;28;20052;-83
2021/03/17 13:12:43;;;;;;;3.42;0.55;;;8.20;93.80;;;;;;5087153;28;20123;-83
2021/03/17 13:15:10;;;;;;;3.00;0.50;;;8.30;93.50;;;;;;5054492;28;20040;-84
2021/03/17 13:17:37;;;;;;;3.65;0.40;;;8.20;93.70;;;;;;5055387;28;20142;-84
2021/03/17 13:20:06;;;;;;;3.80;0.35;;;8.40;93.60;;;;;;5056766;28;20032;-84